Time;durP1;ratioP1;P1;durP2;ratioP2;P2;SDS_P1;SDS_P2;PMS_P1;PMS_P2;Temp;Humidity;BMP_temperature;BMP_pressure;BME280_temperature;BME280_humidity;BME280_pressure;Samples;Min_cycle;Max_cycle;Signal;HPM_P1;HPM_P2
2023/08/02 00:00:45;;;;;;;0.30;0.30;;;15.20;99.90;;;;;;5072050;28;20039;-81
2023/08/02 00:03:13;;;;;;;0.20;0.20;;;15.20;99.90;;;;;;5065304;28;20759;-80
2023/08/02 00:05:40;;;;;;;0.30;0.30;;;15.20;99.90;;;;;;5028007;28;20040;-82
2023/08/02 00:08:06;;;;;;;0.30;0.30;;;15.20;99.90;;;;;;5069250;28;20061;-83
2023/08/02 00:10:36;;;;;;;0.30;0.30;;;15.20;99.90;;;;;;5062293;28;20039;-80
2023/08/02 00:13:02;;;;;;;0.10;0.10;;;15.20;99.90;;;;;;5051081;28;20028;-81
2023/08/02 00:15:28;;;;;;;0.30;0.30;;;15.20;99.90;;;;;;5042825;28;20495;-82
2023/08/02 00:17:53;;;;;;;0.40;0.40;;;15.20;99.90;;;;;;5051275;28;20431;-82
2023/08/02 00:20:19;;;;;;;;;;;15.20;99.90;;;;;;5067662;28;20040;-80
2023/08/02 00:22:45;;;;;;;0.30;0.30;;;15.20;99.90;;;;;;5078000;28;19966;-82
2023/08/02 00:25:10;;;;;;;0.30;0.30;;;15.20;99.90;;;;;;5051143;28;20047;-81
2023/08/02 00:27:36;;;;;;;;;;;15.20;99.90;;;;;;5068937;28;20040;-81
2023/08/02 00:30:02;;;;;;;0.22;0.22;;;15.20;99.90;;;;;;5073559;28;19916;-82
2023/08/02 00:32:27;;;;;;;;;;;15.10;99.90;;;;;;5063312;28;20044;-79
2023/08/02 00:34:54;;;;;;;0.20;0.20;;;15.10;99.90;;;;;;5055093;28;19951;-80
2023/08/02 00:37:22;;;;;;;0.28;0.28;;;15.10;99.90;;;;;;5069953;28;20446;-79
2023/08/02 00:39:54;;;;;;;0.30;0.30;;;15.10;99.90;;;;;;5074029;28;20127;-82
2023/08/02 00:42:21;;;;;;;0.30;0.30;;;15.10;99.90;;;;;;5064737;28;20076;-81
2023/08/02 00:44:47;;;;;;;0.38;0.38;;;15.10;99.90;;;;;;5069619;28;20040;-81
2023/08/02 00:47:13;;;;;;;0.22;0.22;;;15.10;99.90;;;;;;5072361;28;20032;-83
2023/08/02 00:49:38;;;;;;;0.43;0.43;;;15.10;99.90;;;;;;5061375;28;20092;-82
2023/08/02 00:52:04;;;;;;;;;;;15.10;99.90;;;;;;5058274;28;20041;-83
2023/08/02 00:54:30;;;;;;;0.20;0.20;;;15.10;99.90;;;;;;5066133;28;20012;-82
2023/08/02 00:56:56;;;;;;;0.30;0.30;;;15.10;99.90;;;;;;5063153;28;20075;-82
2023/08/02 00:59:22;;;;;;;0.30;0.30;;;15.10;99.90;;;;;;5058092;28;20072;-84
2023/08/02 01:01:48;;;;;;;0.25;0.25;;;15.10;99.90;;;;;;5059081;28;20040;-83
2023/08/02 01:04:15;;;;;;;;;;;15.10;99.90;;;;;;5048062;28;20406;-81
2023/08/02 01:06:50;;;;;;;0.40;0.40;;;15.10;99.90;;;;;;5058910;28;19931;-81
2023/08/02 01:09:33;;;;;;;0.30;0.30;;;15.10;99.90;;;;;;5070382;28;20075;-81
2023/08/02 01:12:09;;;;;;;0.30;0.30;;;15.10;99.90;;;;;;5065397;28;20455;-81
2023/08/02 01:14:37;;;;;;;0.38;0.38;;;15.10;99.90;;;;;;5060591;28;20173;-79
2023/08/02 01:17:03;;;;;;;0.20;0.20;;;15.10;99.90;;;;;;5069237;28;20128;-80
2023/08/02 01:19:31;;;;;;;0.30;0.30;;;15.10;99.90;;;;;;5040485;28;20440;-82
2023/08/02 01:21:57;;;;;;;0.25;0.25;;;15.10;99.90;;;;;;5073839;28;20040;-81
2023/08/02 01:24:32;;;;;;;0.30;0.30;;;15.10;99.90;;;;;;5079278;28;20043;-81
2023/08/02 01:27:11;;;;;;;0.30;0.30;;;15.10;99.90;;;;;;5053189;28;20127;-81
2023/08/02 01:29:40;;;;;;;0.30;0.30;;;15.10;99.90;;;;;;5073946;28;20048;-80
2023/08/02 01:32:06;;;;;;;0.30;0.30;;;15.10;99.90;;;;;;5057203;28;20044;-81
2023/08/02 01:34:33;;;;;;;0.30;0.30;;;15.10;99.90;;;;;;5041651;28;20036;-81
2023/08/02 01:36:59;;;;;;;0.30;0.30;;;15.10;99.90;;;;;;5063279;28;20393;-81
2023/08/02 01:39:24;;;;;;;0.22;0.22;;;15.10;99.90;;;;;;5038802;28;20028;-81
2023/08/02 01:41:50;;;;;;;;;;;15.10;99.90;;;;;;5064100;28;20119;-81
2023/08/02 01:44:15;;;;;;;0.30;0.30;;;15.10;99.90;;;;;;5067394;28;19923;-82
2023/08/02 01:46:41;;;;;;;;;;;15.10;99.90;;;;;;5063950;28;20334;-80
2023/08/02 01:49:07;;;;;;;0.38;0.38;;;15.10;99.90;;;;;;5070134;28;19959;-80
2023/08/02 01:51:33;;;;;;;;;;;15.10;99.90;;;;;;5068662;28;20089;-80
2023/08/02 01:53:58;;;;;;;0.30;0.30;;;15.10;99.90;;;;;;5069155;28;19923;-81
2023/08/02 01:56:24;;;;;;;;;;;15.10;99.90;;;;;;5073201;28;20044;-80
2023/08/02 01:58:49;;;;;;;0.20;0.20;;;15.10;99.90;;;;;;5077795;28;19920;-80
2023/08/02 02:01:17;;;;;;;0.30;0.30;;;15.10;99.90;;;;;;5063099;28;20044;-81
2023/08/02 02:03:42;;;;;;;0.28;0.28;;;15.10;99.90;;;;;;5060781;28;20048;-80
2023/08/02 02:06:08;;;;;;;0.73;0.73;;;15.10;99.90;;;;;;5038493;28;20051;-81
2023/08/02 02:08:34;;;;;;;;;;;15.10;99.90;;;;;;5071624;28;20072;-80
2023/08/02 02:10:59;;;;;;;0.20;0.20;;;15.10;99.90;;;;;;5065785;28;20029;-80
2023/08/02 02:13:25;;;;;;;;;;;15.10;99.90;;;;;;5064641;28;20125;-80
2023/08/02 02:15:51;;;;;;;0.20;0.20;;;15.10;99.90;;;;;;5063763;28;19916;-80
2023/08/02 02:18:17;;;;;;;;;;;15.10;99.90;;;;;;5071264;28;20056;-81
2023/08/02 02:20:42;;;;;;;0.20;0.20;;;15.10;99.90;;;;;;5055373;28;19947;-80
2023/08/02 02:23:08;;;;;;;0.25;0.25;;;15.10;99.90;;;;;;5057075;28;20079;-82
2023/08/02 02:25:34;;;;;;;;;;;15.10;99.90;;;;;;5056003;28;20036;-80
2023/08/02 02:28:00;;;;;;;0.73;0.73;;;15.10;99.90;;;;;;5078615;28;19922;-85
2023/08/02 02:30:25;;;;;;;;;;;15.10;99.90;;;;;;5060310;28;20031;-83
2023/08/02 02:32:52;;;;;;;0.20;0.20;;;15.10;99.90;;;;;;5072337;28;20412;-82
2023/08/02 02:35:18;;;;;;;0.30;0.30;;;15.10;99.90;;;;;;5030230;28;20046;-83
2023/08/02 02:37:44;;;;;;;;;;;15.10;99.90;;;;;;5060910;28;20175;-82
2023/08/02 02:40:10;;;;;;;0.28;0.28;;;15.10;99.90;;;;;;5061093;28;19923;-82
2023/08/02 02:42:38;;;;;;;;;;;15.00;99.90;;;;;;5052316;28;20044;-83
2023/08/02 02:45:05;;;;;;;0.20;0.20;;;15.00;99.90;;;;;;5040619;28;19920;-83
2023/08/02 02:47:31;;;;;;;0.30;0.30;;;15.00;99.90;;;;;;5058054;28;20059;-84
2023/08/02 02:49:56;;;;;;;0.20;0.20;;;15.00;99.90;;;;;;5066108;28;20503;-84
2023/08/02 02:52:23;;;;;;;;;;;15.00;99.90;;;;;;5061399;28;20036;-82
2023/08/02 02:54:49;;;;;;;0.22;0.22;;;15.00;99.90;;;;;;5061384;28;19938;-83
2023/08/02 02:57:18;;;;;;;0.20;0.20;;;15.00;99.90;;;;;;5059236;28;20040;-84
2023/08/02 02:59:44;;;;;;;0.35;0.35;;;15.10;99.90;;;;;;5059658;28;20413;-85
2023/08/02 03:02:09;;;;;;;0.30;0.30;;;16.00;99.90;;;;;;5075407;28;20056;-83
2023/08/02 03:04:35;;;;;;;;;;;15.00;99.90;;;;;;5059187;28;20093;-83
2023/08/02 03:07:01;;;;;;;0.25;0.25;;;15.00;99.90;;;;;;5074648;28;19916;-82
2023/08/02 03:09:27;;;;;;;0.52;0.52;;;15.00;99.90;;;;;;5057567;28;20044;-83
2023/08/02 03:11:53;;;;;;;0.20;0.20;;;15.00;99.90;;;;;;5043365;28;20044;-83
2023/08/02 03:14:18;;;;;;;0.30;0.30;;;15.00;99.90;;;;;;5057897;28;20036;-82
2023/08/02 03:16:44;;;;;;;0.70;0.68;;;15.00;99.90;;;;;;5043204;28;20071;-83
2023/08/02 03:19:11;;;;;;;0.55;0.55;;;15.00;99.90;;;;;;5051409;28;20423;-83
2023/08/02 03:21:37;;;;;;;1.77;0.68;;;15.00;99.90;;;;;;5034097;28;20082;-83
2023/08/02 03:24:02;;;;;;;0.30;0.30;;;15.00;99.90;;;;;;5065937;28;20027;-83
2023/08/02 03:26:28;;;;;;;;;;;15.00;99.90;;;;;;5052508;28;20039;-82
2023/08/02 03:28:54;;;;;;;0.43;0.43;;;15.00;99.90;;;;;;5069963;28;20389;-81
2023/08/02 03:31:19;;;;;;;;;;;15.00;99.90;;;;;;5041627;28;20036;-82
2023/08/02 03:33:45;;;;;;;0.30;0.30;;;15.00;99.90;;;;;;5058893;28;20381;-83
2023/08/02 03:36:10;;;;;;;;;;;15.00;99.90;;;;;;5092074;28;20043;-81
2023/08/02 03:38:36;;;;;;;0.30;0.30;;;15.00;99.90;;;;;;5066341;28;19923;-83
2023/08/02 03:41:04;;;;;;;0.40;0.40;;;15.00;99.90;;;;;;5042212;28;20493;-83
2023/08/02 03:43:30;;;;;;;0.20;0.20;;;15.00;99.90;;;;;;5058358;28;20036;-83
2023/08/02 03:45:56;;;;;;;0.20;0.20;;;15.00;99.90;;;;;;5062216;28;20039;-85
2023/08/02 03:48:21;;;;;;;;;;;15.00;99.90;;;;;;5042092;28;20444;-82
2023/08/02 03:50:48;;;;;;;0.30;0.30;;;14.90;99.90;;;;;;5076620;28;19915;-83
2023/08/02 03:53:14;;;;;;;0.30;0.30;;;14.90;99.90;;;;;;5058286;28;20036;-84
2023/08/02 03:55:43;;;;;;;0.22;0.22;;;14.90;99.90;;;;;;5076266;28;20443;-85
2023/08/02 03:58:09;;;;;;;0.20;0.20;;;14.90;99.90;;;;;;5073472;28;20127;-83
2023/08/02 04:00:34;;;;;;;;;;;14.90;99.90;;;;;;5046566;28;20041;-84
2023/08/02 04:03:00;;;;;;;0.30;0.30;;;14.90;99.90;;;;;;5059378;28;19923;-84
2023/08/02 04:05:26;;;;;;;1.80;0.73;;;14.90;99.90;;;;;;5053052;28;20478;-83
2023/08/02 04:07:51;;;;;;;;;;;14.90;99.90;;;;;;5076838;28;20035;-82
2023/08/02 04:10:17;;;;;;;1.08;1.08;;;14.90;99.90;;;;;;5051122;28;19927;-80
2023/08/02 04:12:43;;;;;;;0.30;0.30;;;14.90;99.90;;;;;;5062618;28;20474;-83
2023/08/02 04:15:09;;;;;;;0.22;0.22;;;14.90;99.90;;;;;;5073925;28;20039;-84
2023/08/02 04:17:35;;;;;;;0.30;0.30;;;15.00;99.90;;;;;;5033054;28;20092;-84
2023/08/02 04:20:01;;;;;;;;;;;14.90;99.90;;;;;;5073588;28;20036;-83
2023/08/02 04:22:32;;;;;;;0.35;0.35;;;14.90;99.90;;;;;;5074417;28;20019;-85
2023/08/02 04:24:58;;;;;;;0.50;0.50;;;15.00;99.90;;;;;;5041025;28;20099;-82
2023/08/02 04:27:24;;;;;;;;;;;15.00;99.90;;;;;;5065721;28;20085;-84
2023/08/02 04:29:49;;;;;;;0.55;0.47;;;15.00;99.90;;;;;;5059208;28;19927;-83
2023/08/02 04:32:15;;;;;;;;;;;15.00;99.90;;;;;;5060530;28;20042;-82
2023/08/02 04:34:41;;;;;;;0.30;0.30;;;15.10;99.90;;;;;;5053252;28;19916;-82
2023/08/02 04:37:06;;;;;;;0.20;0.20;;;15.10;99.90;;;;;;5078585;28;20043;-83
2023/08/02 04:39:32;;;;;;;0.28;0.28;;;15.10;99.90;;;;;;5072795;28;20097;-83
2023/08/02 04:42:01;;;;;;;3.42;0.38;;;15.00;99.90;;;;;;5051841;28;20512;-82
2023/08/02 04:44:28;;;;;;;0.40;0.40;;;15.10;99.90;;;;;;5053315;28;20131;-84
2023/08/02 04:46:53;;;;;;;0.77;0.77;;;15.10;99.90;;;;;;5056332;28;20495;-84
2023/08/02 04:49:19;;;;;;;0.28;0.28;;;15.10;99.90;;;;;;5069885;28;20117;-81
2023/08/02 04:51:45;;;;;;;;;;;15.10;99.90;;;;;;5065766;28;20036;-83
2023/08/02 04:54:10;;;;;;;1.05;0.73;;;15.10;99.90;;;;;;5063878;28;19925;-82
2023/08/02 04:56:37;;;;;;;;;;;15.00;99.90;;;;;;5071958;28;20081;-81
2023/08/02 04:59:05;;;;;;;0.20;0.20;;;15.00;99.90;;;;;;5051502;28;19920;-80
2023/08/02 05:01:31;;;;;;;0.80;0.30;;;15.10;99.90;;;;;;5072852;28;20036;-80
2023/08/02 05:03:57;;;;;;;;;;;15.10;99.90;;;;;;5080326;28;20083;-82
2023/08/02 05:06:23;;;;;;;0.20;0.20;;;15.10;99.90;;;;;;5056542;28;19959;-81
2023/08/02 05:08:49;;;;;;;;;;;15.10;99.90;;;;;;5071839;28;20475;-81
2023/08/02 05:11:14;;;;;;;0.43;0.43;;;15.10;99.90;;;;;;5068674;28;19916;-82
2023/08/02 05:13:40;;;;;;;;;;;15.10;99.90;;;;;;5072824;28;20419;-82
2023/08/02 05:16:12;;;;;;;0.45;0.45;;;16.10;99.90;;;;;;5068789;28;19931;-81
2023/08/02 05:18:37;;;;;;;0.43;0.43;;;15.10;99.90;;;;;;5067819;28;20513;-82
2023/08/02 05:21:14;;;;;;;1.30;1.20;;;15.10;99.90;;;;;;5049134;28;20066;-82
2023/08/02 05:23:40;;;;;;;;;;;15.20;99.90;;;;;;5053967;28;20040;-81
2023/08/02 05:26:07;;;;;;;0.30;0.30;;;15.20;99.90;;;;;;5042998;28;20026;-83
2023/08/02 05:28:33;;;;;;;0.30;0.30;;;15.20;99.90;;;;;;5075476;28;20068;-82
2023/08/02 05:30:59;;;;;;;0.20;0.20;;;15.20;99.90;;;;;;5056595;28;20123;-84
2023/08/02 05:33:25;;;;;;;0.40;0.40;;;15.30;99.90;;;;;;5045272;28;20118;-82
2023/08/02 05:35:51;;;;;;;0.30;0.30;;;15.30;99.90;;;;;;5062052;28;20071;-82
2023/08/02 05:38:18;;;;;;;0.20;0.20;;;15.30;99.90;;;;;;5067782;28;20119;-84
2023/08/02 05:40:44;;;;;;;0.38;0.38;;;15.30;99.90;;;;;;5044928;28;20498;-85
2023/08/02 05:43:10;;;;;;;0.38;0.38;;;15.30;99.90;;;;;;5032179;28;20098;-84
2023/08/02 05:45:35;;;;;;;0.30;0.30;;;15.40;99.90;;;;;;5062360;28;20037;-85
2023/08/02 05:48:01;;;;;;;;;;;15.40;99.90;;;;;;5055916;28;20402;-83
2023/08/02 05:50:29;;;;;;;0.50;0.50;;;15.50;99.90;;;;;;5053494;28;20011;-84
2023/08/02 05:52:54;;;;;;;0.40;0.40;;;15.50;99.90;;;;;;5076177;28;20548;-84
2023/08/02 05:55:21;;;;;;;0.20;0.20;;;15.60;99.90;;;;;;5098663;28;20104;-83
2023/08/02 05:57:48;;;;;;;;;;;15.60;99.90;;;;;;5058755;28;20072;-83
2023/08/02 06:00:15;;;;;;;0.45;0.45;;;15.70;99.90;;;;;;5078465;28;20277;-83
2023/08/02 06:02:41;;;;;;;0.40;0.40;;;15.80;99.90;;;;;;5079159;28;20040;-83
2023/08/02 06:05:07;;;;;;;0.32;0.32;;;15.80;99.90;;;;;;5058010;28;20118;-83
2023/08/02 06:07:33;;;;;;;0.35;0.35;;;15.80;99.90;;;;;;5059570;28;20036;-82
2023/08/02 06:09:58;;;;;;;1.25;1.25;;;15.80;99.90;;;;;;5051089;28;20048;-83
2023/08/02 06:12:27;;;;;;;1.13;1.13;;;15.80;99.90;;;;;;5062866;28;20048;-83
2023/08/02 06:14:52;;;;;;;0.22;0.22;;;15.80;99.90;;;;;;5056819;28;20052;-84
2023/08/02 06:17:20;;;;;;;0.40;0.40;;;15.80;99.90;;;;;;5063860;28;20047;-83
2023/08/02 06:19:45;;;;;;;0.32;0.32;;;15.80;99.90;;;;;;5041149;28;20474;-83
2023/08/02 06:22:15;;;;;;;0.52;0.52;;;15.90;99.90;;;;;;5073458;28;20395;-83
2023/08/02 06:24:42;;;;;;;0.40;0.40;;;16.00;99.90;;;;;;5042793;28;20068;-83
2023/08/02 06:27:08;;;;;;;0.60;0.60;;;16.10;99.90;;;;;;5063132;28;20070;-84
2023/08/02 06:29:33;;;;;;;0.25;0.25;;;16.30;99.90;;;;;;5031800;28;20080;-83
2023/08/02 06:31:59;;;;;;;0.70;0.70;;;16.40;99.90;;;;;;5039499;28;20036;-85
2023/08/02 06:34:25;;;;;;;;;;;16.40;99.90;;;;;;5060158;28;20541;-84
2023/08/02 06:36:51;;;;;;;0.82;0.82;;;16.40;99.90;;;;;;5038619;28;19935;-83
2023/08/02 06:39:16;;;;;;;;;;;16.40;99.90;;;;;;5037891;28;20067;-85
2023/08/02 06:41:42;;;;;;;0.43;0.43;;;16.50;99.90;;;;;;5060652;28;19931;-84
2023/08/02 06:44:08;;;;;;;0.30;0.30;;;16.50;99.90;;;;;;5092559;28;20094;-85
2023/08/02 06:46:33;;;;;;;;;;;16.60;99.90;;;;;;5071709;28;20058;-83
2023/08/02 06:49:01;;;;;;;0.38;0.38;;;16.70;99.90;;;;;;5070483;28;19916;-81
2023/08/02 06:51:26;;;;;;;0.30;0.30;;;16.70;99.90;;;;;;5052712;28;20494;-83
2023/08/02 06:53:57;;;;;;;0.50;0.50;;;16.90;99.90;;;;;;5041975;28;20155;-80
2023/08/02 06:56:23;;;;;;;0.25;0.25;;;17.00;99.90;;;;;;5038132;28;20040;-82
2023/08/02 06:58:49;;;;;;;0.40;0.40;;;17.00;99.90;;;;;;5071067;28;20055;-80
2023/08/02 07:01:15;;;;;;;;;;;17.10;99.90;;;;;;5055890;28;20032;-83
2023/08/02 07:03:41;;;;;;;0.45;0.45;;;17.10;99.90;;;;;;5051741;28;19920;-82
2023/08/02 07:06:34;;;;;;;8.38;1.75;;;17.10;99.90;;;;;;5056760;28;20040;-81
2023/08/02 07:09:00;;;;;;;1.90;1.17;;;17.10;99.90;;;;;;5060345;28;20351;-83
2023/08/02 07:11:27;;;;;;;0.88;0.88;;;17.10;99.90;;;;;;5066252;28;20054;-81
2023/08/02 07:13:53;;;;;;;0.80;0.55;;;17.00;99.90;;;;;;5053827;28;20048;-85
2023/08/02 07:16:19;;;;;;;;;;;17.10;99.90;;;;;;5073488;28;20065;-83
2023/08/02 07:18:44;;;;;;;0.50;0.50;;;17.20;99.90;;;;;;5073811;28;20284;-82
2023/08/02 07:21:10;;;;;;;;;;;17.30;99.90;;;;;;5074705;28;20039;-82
2023/08/02 07:23:36;;;;;;;0.38;0.38;;;17.30;99.90;;;;;;5070292;28;20430;-78
2023/08/02 07:26:09;;;;;;;1.38;1.17;;;17.30;99.90;;;;;;5042667;28;20040;-81
2023/08/02 07:28:35;;;;;;;0.75;0.75;;;17.30;99.90;;;;;;5072474;28;20048;-80
2023/08/02 07:31:11;;;;;;;1.27;1.17;;;17.40;99.90;;;;;;5065204;28;20362;-81
2023/08/02 07:33:37;;;;;;;0.57;0.57;;;17.30;99.90;;;;;;5052876;28;20055;-84
2023/08/02 07:36:04;;;;;;;0.98;0.98;;;17.30;99.90;;;;;;5052950;28;20557;-85
2023/08/02 07:38:30;;;;;;;0.63;0.63;;;17.20;99.90;;;;;;5073660;28;20044;-83
2023/08/02 07:40:56;;;;;;;2.25;0.60;;;17.20;99.90;;;;;;5057020;28;20058;-79
2023/08/02 07:43:23;;;;;;;;;;;17.20;99.90;;;;;;5040247;28;20118;-80
2023/08/02 07:45:52;;;;;;;1.15;1.15;;;17.10;99.90;;;;;;5087758;28;19931;-84
2023/08/02 07:48:17;;;;;;;;;;;16.90;99.90;;;;;;5038889;28;20067;-79
2023/08/02 07:50:43;;;;;;;1.85;1.50;;;16.80;99.90;;;;;;5057582;28;20014;-77
2023/08/02 07:53:09;;;;;;;;;;;16.80;99.90;;;;;;5057350;28;20047;-82
2023/08/02 07:55:35;;;;;;;0.85;0.60;;;16.80;99.90;;;;;;5074962;28;19923;-80
2023/08/02 07:58:00;;;;;;;;;;;16.80;99.90;;;;;;5030436;28;20494;-80
2023/08/02 08:00:26;;;;;;;0.40;0.40;;;16.80;99.90;;;;;;5052343;28;20390;-80
2023/08/02 08:02:51;;;;;;;;;;;16.90;99.90;;;;;;5053915;28;20033;-76
2023/08/02 08:05:17;;;;;;;0.30;0.30;;;16.90;99.90;;;;;;5064802;28;19931;-83
2023/08/02 08:07:43;;;;;;;;;;;17.70;99.90;;;;;;5071056;28;20402;-81
2023/08/02 08:10:08;;;;;;;0.40;0.40;;;16.90;99.90;;;;;;5087580;28;20373;-80
2023/08/02 08:12:35;;;;;;;;;;;16.90;99.90;;;;;;5052258;28;20036;-77
2023/08/02 08:15:01;;;;;;;0.40;0.40;;;16.80;99.90;;;;;;5076612;28;20003;-80
2023/08/02 08:17:27;;;;;;;;;;;16.70;99.90;;;;;;5060517;28;20142;-76
2023/08/02 08:20:05;;;;;;;0.20;0.20;;;16.70;99.90;;;;;;5088761;28;19965;-80
2023/08/02 08:22:31;;;;;;;4.15;1.50;;;16.60;99.90;;;;;;5073075;28;20502;-80
2023/08/02 08:24:57;;;;;;;0.30;0.30;;;16.60;99.90;;;;;;5049056;28;20075;-83
2023/08/02 08:27:22;;;;;;;;;;;16.60;99.90;;;;;;5062880;28;20163;-81
2023/08/02 08:29:54;;;;;;;0.40;0.40;;;16.60;99.90;;;;;;5073469;28;19923;-82
2023/08/02 08:32:22;;;;;;;0.30;0.30;;;16.50;99.90;;;;;;5061255;28;20044;-82
2023/08/02 08:34:47;;;;;;;0.20;0.20;;;16.40;99.90;;;;;;5038856;28;20065;-78
2023/08/02 08:37:13;;;;;;;0.20;0.20;;;16.30;99.90;;;;;;5070106;28;20041;-80
2023/08/02 08:39:40;;;;;;;0.20;0.20;;;16.30;99.90;;;;;;5074441;28;20044;-82
2023/08/02 08:42:07;;;;;;;;;;;16.20;99.90;;;;;;5060843;28;20055;-78
2023/08/02 08:44:37;;;;;;;0.20;0.20;;;16.10;99.90;;;;;;5069141;28;20375;-78
2023/08/02 08:47:05;;;;;;;0.28;0.28;;;16.00;99.90;;;;;;5054834;28;20043;-79
2023/08/02 08:49:30;;;;;;;0.50;0.50;;;16.00;99.90;;;;;;5055037;28;20044;-79
2023/08/02 08:52:00;;;;;;;0.20;0.20;;;15.90;99.90;;;;;;5072504;28;20044;-79
2023/08/02 08:54:28;;;;;;;0.30;0.30;;;15.80;99.90;;;;;;5054704;28;20810;-83
2023/08/02 08:56:56;;;;;;;0.20;0.20;;;15.80;99.90;;;;;;5085439;28;20055;-80
2023/08/02 08:59:24;;;;;;;0.20;0.20;;;15.80;99.90;;;;;;5036892;28;20066;-78
2023/08/02 09:01:50;;;;;;;0.65;0.63;;;15.70;99.90;;;;;;5055568;28;20040;-83
2023/08/02 09:04:16;;;;;;;0.40;0.40;;;15.60;99.90;;;;;;5038001;28;20036;-77
2023/08/02 09:06:42;;;;;;;0.38;0.38;;;15.60;99.90;;;;;;5054561;28;20442;-78
2023/08/02 09:09:08;;;;;;;0.30;0.30;;;15.50;99.90;;;;;;5067834;28;20044;-82
2023/08/02 09:11:34;;;;;;;;;;;15.50;99.90;;;;;;5070835;28;20072;-81
2023/08/02 09:14:15;;;;;;;0.22;0.22;;;15.40;99.90;;;;;;5068198;28;19986;-79
2023/08/02 09:17:02;;;;;;;0.40;0.40;;;15.40;99.90;;;;;;5036524;28;20051;-79
2023/08/02 09:19:28;;;;;;;;;;;15.40;99.90;;;;;;5067694;28;20453;-80
2023/08/02 09:22:16;;;;;;;0.20;0.20;;;15.30;99.90;;;;;;5069589;28;20049;-78
2023/08/02 09:24:44;;;;;;;0.25;0.25;;;15.40;99.90;;;;;;5069440;28;20040;-79
2023/08/02 09:27:18;;;;;;;0.40;0.40;;;15.50;99.90;;;;;;5053337;28;20092;-78
2023/08/02 09:29:51;;;;;;;0.50;0.50;;;15.60;99.90;;;;;;5069738;28;20659;-80
2023/08/02 09:32:19;;;;;;;0.30;0.30;;;15.70;99.90;;;;;;5073472;28;20500;-80
2023/08/02 09:34:47;;;;;;;0.28;0.28;;;15.70;99.90;;;;;;5070143;28;20039;-79
2023/08/02 09:37:15;;;;;;;0.50;0.50;;;15.80;99.90;;;;;;5055575;28;20071;-79
2023/08/02 09:39:49;;;;;;;0.30;0.30;;;15.80;99.90;;;;;;5071138;28;20342;-78
2023/08/02 09:42:15;;;;;;;3.65;0.60;;;15.90;99.90;;;;;;5087178;28;20490;-78
2023/08/02 09:44:41;;;;;;;0.40;0.40;;;15.90;99.90;;;;;;5074768;28;20077;-78
2023/08/02 09:47:11;;;;;;;;;;;15.80;99.90;;;;;;5071000;28;20427;-79
2023/08/02 09:49:38;;;;;;;0.30;0.30;;;15.80;99.90;;;;;;5065545;28;19924;-80
2023/08/02 09:52:05;;;;;;;0.30;0.30;;;15.90;99.90;;;;;;5069468;28;20070;-79
2023/08/02 09:54:31;;;;;;;0.40;0.40;;;15.90;99.90;;;;;;5073437;28;20076;-79
2023/08/02 09:56:58;;;;;;;0.30;0.30;;;15.90;99.90;;;;;;5071427;28;20068;-78
2023/08/02 09:59:29;;;;;;;0.35;0.35;;;16.00;99.90;;;;;;5066383;28;20087;-78
2023/08/02 10:01:56;;;;;;;0.40;0.40;;;16.10;99.90;;;;;;5071554;28;20072;-78
2023/08/02 10:04:25;;;;;;;0.55;0.55;;;16.20;99.90;;;;;;5079706;28;20085;-79
2023/08/02 10:07:02;;;;;;;0.20;0.20;;;16.20;99.90;;;;;;5083934;28;20070;-79
2023/08/02 10:09:33;;;;;;;0.30;0.30;;;16.20;99.90;;;;;;5057402;28;20044;-80
2023/08/02 10:12:13;;;;;;;0.40;0.40;;;16.30;99.90;;;;;;5060249;28;20040;-80
2023/08/02 10:14:40;;;;;;;0.30;0.30;;;16.30;99.90;;;;;;5072958;28;20123;-81
2023/08/02 10:17:07;;;;;;;0.75;0.60;;;16.30;99.90;;;;;;5074506;28;20097;-81
2023/08/02 10:19:35;;;;;;;0.30;0.30;;;16.30;99.90;;;;;;5051138;28;20113;-79
2023/08/02 10:22:05;;;;;;;0.30;0.30;;;16.30;99.90;;;;;;5073951;28;20398;-80
2023/08/02 10:24:31;;;;;;;0.20;0.20;;;16.20;99.90;;;;;;5082916;28;20408;-81
2023/08/02 10:27:04;;;;;;;0.20;0.20;;;16.20;99.90;;;;;;5056914;28;20097;-80
2023/08/02 10:29:37;;;;;;;0.30;0.30;;;16.20;99.90;;;;;;5058138;28;20442;-81
2023/08/02 10:32:19;;;;;;;0.20;0.20;;;16.10;99.90;;;;;;5055531;28;20040;-79
2023/08/02 10:34:52;;;;;;;0.35;0.35;;;16.00;99.90;;;;;;5087747;28;20568;-78
2023/08/02 10:37:19;;;;;;;0.47;0.47;;;16.00;99.90;;;;;;5070269;28;20097;-78
2023/08/02 10:39:47;;;;;;;0.45;0.45;;;16.00;99.90;;;;;;5055982;28;20054;-79
2023/08/02 10:42:14;;;;;;;0.20;0.20;;;16.10;99.90;;;;;;5066847;28;20064;-78
2023/08/02 10:45:14;;;;;;;0.30;0.30;;;16.10;99.90;;;;;;5069680;28;20036;-79
2023/08/02 10:47:40;;;;;;;0.30;0.30;;;16.20;99.90;;;;;;5025194;28;20513;-81
2023/08/02 10:50:06;;;;;;;0.32;0.32;;;16.20;99.90;;;;;;5088019;28;20453;-79
2023/08/02 10:52:37;;;;;;;0.20;0.20;;;16.20;99.90;;;;;;5070497;28;20054;-79
2023/08/02 10:55:06;;;;;;;0.38;0.38;;;16.20;99.90;;;;;;5070748;28;20410;-79
2023/08/02 10:57:32;;;;;;;0.20;0.20;;;16.30;99.90;;;;;;5035584;28;20043;-78
2023/08/02 10:59:58;;;;;;;;;;;16.40;99.90;;;;;;5056129;28;20040;-76
2023/08/02 11:02:26;;;;;;;0.30;0.30;;;16.40;99.90;;;;;;5070977;28;19916;-80
2023/08/02 11:04:53;;;;;;;0.20;0.20;;;16.50;99.90;;;;;;5049427;28;20032;-78
2023/08/02 11:07:21;;;;;;;0.28;0.28;;;16.50;99.90;;;;;;5039929;28;20393;-80
2023/08/02 11:09:49;;;;;;;0.20;0.20;;;16.50;99.90;;;;;;5052805;28;20039;-79
2023/08/02 11:12:17;;;;;;;0.52;0.47;;;16.60;99.90;;;;;;5068932;28;20054;-80
2023/08/02 11:14:44;;;;;;;0.28;0.28;;;16.60;99.90;;;;;;5069081;28;20105;-78
2023/08/02 11:17:20;;;;;;;0.40;0.40;;;16.70;99.90;;;;;;5039029;28;20145;-80
2023/08/02 11:19:52;;;;;;;0.47;0.47;;;16.80;99.90;;;;;;5062808;28;20048;-80
2023/08/02 11:22:18;;;;;;;0.28;0.28;;;16.90;99.90;;;;;;5066444;28;20035;-80
2023/08/02 11:24:46;;;;;;;0.30;0.30;;;16.90;99.90;;;;;;5079379;28;20044;-79
2023/08/02 11:27:21;;;;;;;0.22;0.22;;;16.90;99.90;;;;;;5066034;28;20047;-79
2023/08/02 11:30:19;;;;;;;0.43;0.32;;;16.80;99.90;;;;;;5077812;28;20048;-77
2023/08/02 11:32:46;;;;;;;0.20;0.20;;;16.70;99.90;;;;;;5070416;28;20385;-79
2023/08/02 11:35:19;;;;;;;0.20;0.20;;;16.60;99.90;;;;;;5068033;28;20051;-78
2023/08/02 11:37:45;;;;;;;0.38;0.30;;;16.50;99.90;;;;;;5069533;28;20036;-78
2023/08/02 11:40:12;;;;;;;0.28;0.28;;;16.50;99.90;;;;;;5052674;28;20067;-78
2023/08/02 11:42:50;;;;;;;0.40;0.40;;;16.50;99.90;;;;;;5047749;28;20069;-79
2023/08/02 11:45:33;;;;;;;0.20;0.20;;;16.60;99.90;;;;;;5009050;28;20041;-79
2023/08/02 11:47:59;;;;;;;0.30;0.30;;;16.70;99.90;;;;;;5042178;28;20048;-78
2023/08/02 11:50:25;;;;;;;;;;;16.80;99.90;;;;;;5044810;28;20082;-79
2023/08/02 11:52:52;;;;;;;0.20;0.20;;;16.80;99.90;;;;;;5006207;28;19925;-78
2023/08/02 11:55:20;;;;;;;0.30;0.30;;;16.80;99.90;;;;;;5001459;28;20828;-79
2023/08/02 11:57:47;;;;;;;0.28;0.28;;;16.80;99.90;;;;;;5026761;28;20045;-80
2023/08/02 12:00:13;;;;;;;1.27;0.43;;;16.80;99.90;;;;;;5030923;28;20359;-79
2023/08/02 12:02:40;;;;;;;0.20;0.20;;;16.90;99.90;;;;;;5030204;28;20059;-80
2023/08/02 12:05:08;;;;;;;0.32;0.32;;;16.90;99.90;;;;;;5029467;28;20043;-81
2023/08/02 12:07:36;;;;;;;0.40;0.40;;;16.90;99.90;;;;;;5042629;28;20049;-79
2023/08/02 12:10:06;;;;;;;0.30;0.30;;;16.90;99.90;;;;;;5050290;28;20141;-80
2023/08/02 12:12:39;;;;;;;0.28;0.28;;;17.00;99.90;;;;;;5018757;28;20060;-77
2023/08/02 12:15:11;;;;;;;;;;;17.00;99.90;;;;;;4992033;28;20041;-81
2023/08/02 12:17:37;;;;;;;0.30;0.30;;;17.10;99.90;;;;;;5043363;28;19920;-79
2023/08/02 12:20:06;;;;;;;0.22;0.22;;;17.10;99.90;;;;;;5027075;28;20059;-81
2023/08/02 12:22:48;;;;;;;0.30;0.30;;;17.30;99.90;;;;;;5034586;28;20120;-78
2023/08/02 12:25:15;;;;;;;0.30;0.30;;;17.80;99.90;;;;;;5029068;28;20039;-76
2023/08/02 12:27:41;;;;;;;0.30;0.30;;;18.50;99.90;;;;;;5024024;28;20404;-80
2023/08/02 12:30:15;;;;;;;0.25;0.25;;;19.00;99.90;;;;;;5028634;28;20112;-77
2023/08/02 12:32:41;;;;;;;0.30;0.30;;;19.20;99.90;;;;;;5026865;28;20040;-80
2023/08/02 12:35:07;;;;;;;;;;;19.20;99.90;;;;;;5048719;28;20033;-76
2023/08/02 12:37:34;;;;;;;0.30;0.30;;;19.20;99.90;;;;;;5026719;28;19986;-79
2023/08/02 12:40:00;;;;;;;0.20;0.20;;;19.10;99.90;;;;;;5030655;28;20041;-78
2023/08/02 12:42:26;;;;;;;0.20;0.20;;;19.10;99.90;;;;;;5043082;28;20107;-81
2023/08/02 12:44:52;;;;;;;;;;;19.10;99.90;;;;;;5063715;28;20040;-78
2023/08/02 12:47:17;;;;;;;0.30;0.30;;;19.00;99.90;;;;;;5044029;28;19999;-81
2023/08/02 12:49:43;;;;;;;;;;;19.10;99.90;;;;;;5056247;28;20044;-81
2023/08/02 12:52:09;;;;;;;0.20;0.20;;;19.20;99.90;;;;;;5048552;28;19921;-80
2023/08/02 12:54:34;;;;;;;;;;;19.60;99.90;;;;;;5065215;28;20501;-81
2023/08/02 12:57:00;;;;;;;0.20;0.20;;;20.10;99.90;;;;;;5052169;28;19971;-83
2023/08/02 12:59:25;;;;;;;;;;;20.50;99.90;;;;;;5060947;28;20113;-80
2023/08/02 13:01:51;;;;;;;0.32;0.20;;;20.80;99.90;;;;;;5060512;28;19920;-80
2023/08/02 13:04:17;;;;;;;;;;;20.90;99.90;;;;;;5046916;28;20055;-80